sensor_id;sensor_type;location;lat;lon;timestamp;P1;durP1;ratioP1;P2;durP2;ratioP2
62102;SDS011;48077;48.104;11.702;2022-08-21T00:00:10;3.67;;;2.13;;
62102;SDS011;48077;48.104;11.702;2022-08-21T00:02:37;3.83;;;2.20;;
62102;SDS011;48077;48.104;11.702;2022-08-21T00:05:07;2.45;;;1.90;;
62102;SDS011;48077;48.104;11.702;2022-08-21T00:07:30;3.70;;;1.98;;
62102;SDS011;48077;48.104;11.702;2022-08-21T00:09:54;3.42;;;1.80;;
62102;SDS011;48077;48.104;11.702;2022-08-21T00:12:18;3.35;;;1.73;;
62102;SDS011;48077;48.104;11.702;2022-08-21T00:14:41;3.08;;;2.15;;
62102;SDS011;48077;48.104;11.702;2022-08-21T00:17:05;2.45;;;1.70;;
62102;SDS011;48077;48.104;11.702;2022-08-21T00:19:29;2.50;;;1.70;;
62102;SDS011;48077;48.104;11.702;2022-08-21T00:21:54;4.63;;;2.20;;
62102;SDS011;48077;48.104;11.702;2022-08-21T00:24:18;2.55;;;1.83;;
62102;SDS011;48077;48.104;11.702;2022-08-21T00:26:43;3.17;;;1.98;;
62102;SDS011;48077;48.104;11.702;2022-08-21T00:29:06;3.47;;;1.90;;
62102;SDS011;48077;48.104;11.702;2022-08-21T00:31:29;3.00;;;1.85;;
62102;SDS011;48077;48.104;11.702;2022-08-21T00:33:53;3.03;;;1.98;;
62102;SDS011;48077;48.104;11.702;2022-08-21T00:36:16;2.60;;;1.73;;
62102;SDS011;48077;48.104;11.702;2022-08-21T00:38:40;3.90;;;1.80;;
62102;SDS011;48077;48.104;11.702;2022-08-21T00:41:04;3.50;;;1.85;;
62102;SDS011;48077;48.104;11.702;2022-08-21T00:43:31;2.85;;;1.90;;
62102;SDS011;48077;48.104;11.702;2022-08-21T00:45:56;2.20;;;1.52;;
62102;SDS011;48077;48.104;11.702;2022-08-21T00:48:20;3.53;;;1.70;;
62102;SDS011;48077;48.104;11.702;2022-08-21T00:50:46;3.25;;;1.77;;
62102;SDS011;48077;48.104;11.702;2022-08-21T00:53:15;3.35;;;1.83;;
62102;SDS011;48077;48.104;11.702;2022-08-21T00:55:39;3.58;;;1.70;;
62102;SDS011;48077;48.104;11.702;2022-08-21T00:58:04;2.85;;;1.80;;
62102;SDS011;48077;48.104;11.702;2022-08-21T01:00:31;2.47;;;1.88;;
62102;SDS011;48077;48.104;11.702;2022-08-21T01:02:57;6.80;;;2.00;;
62102;SDS011;48077;48.104;11.702;2022-08-21T01:05:22;3.08;;;1.83;;
62102;SDS011;48077;48.104;11.702;2022-08-21T01:07:45;3.47;;;2.15;;
62102;SDS011;48077;48.104;11.702;2022-08-21T01:10:09;3.30;;;1.90;;
62102;SDS011;48077;48.104;11.702;2022-08-21T01:12:32;2.13;;;1.35;;
62102;SDS011;48077;48.104;11.702;2022-08-21T01:14:56;2.10;;;1.58;;
62102;SDS011;48077;48.104;11.702;2022-08-21T01:17:21;2.70;;;1.65;;
62102;SDS011;48077;48.104;11.702;2022-08-21T01:19:45;3.95;;;1.50;;
62102;SDS011;48077;48.104;11.702;2022-08-21T01:22:08;1.90;;;1.40;;
62102;SDS011;48077;48.104;11.702;2022-08-21T01:24:33;2.10;;;1.40;;
62102;SDS011;48077;48.104;11.702;2022-08-21T01:26:56;2.92;;;1.65;;
62102;SDS011;48077;48.104;11.702;2022-08-21T01:29:33;3.10;;;1.58;;
62102;SDS011;48077;48.104;11.702;2022-08-21T01:31:58;2.47;;;1.67;;
62102;SDS011;48077;48.104;11.702;2022-08-21T01:34:25;2.88;;;1.50;;
62102;SDS011;48077;48.104;11.702;2022-08-21T01:36:49;3.35;;;1.73;;
62102;SDS011;48077;48.104;11.702;2022-08-21T01:39:12;3.55;;;1.60;;
62102;SDS011;48077;48.104;11.702;2022-08-21T01:41:37;2.90;;;1.40;;
62102;SDS011;48077;48.104;11.702;2022-08-21T01:44:01;3.50;;;1.60;;
62102;SDS011;48077;48.104;11.702;2022-08-21T01:46:24;2.45;;;1.55;;
62102;SDS011;48077;48.104;11.702;2022-08-21T01:48:47;2.60;;;1.35;;
62102;SDS011;48077;48.104;11.702;2022-08-21T01:51:11;2.90;;;1.58;;
62102;SDS011;48077;48.104;11.702;2022-08-21T01:53:35;3.22;;;1.52;;
62102;SDS011;48077;48.104;11.702;2022-08-21T01:55:59;2.63;;;1.60;;
62102;SDS011;48077;48.104;11.702;2022-08-21T01:58:23;2.58;;;1.48;;
62102;SDS011;48077;48.104;11.702;2022-08-21T02:00:46;2.42;;;1.40;;
62102;SDS011;48077;48.104;11.702;2022-08-21T02:03:09;2.08;;;1.30;;
62102;SDS011;48077;48.104;11.702;2022-08-21T02:05:33;2.22;;;1.40;;
62102;SDS011;48077;48.104;11.702;2022-08-21T02:07:56;2.17;;;1.35;;
62102;SDS011;48077;48.104;11.702;2022-08-21T02:10:30;2.40;;;1.30;;
62102;SDS011;48077;48.104;11.702;2022-08-21T02:12:55;2.67;;;1.55;;
62102;SDS011;48077;48.104;11.702;2022-08-21T02:15:19;2.42;;;1.40;;
62102;SDS011;48077;48.104;11.702;2022-08-21T02:17:46;2.08;;;1.15;;
62102;SDS011;48077;48.104;11.702;2022-08-21T02:20:34;2.72;;;1.58;;
62102;SDS011;48077;48.104;11.702;2022-08-21T02:23:02;2.13;;;1.20;;
62102;SDS011;48077;48.104;11.702;2022-08-21T02:25:27;4.80;;;1.80;;
62102;SDS011;48077;48.104;11.702;2022-08-21T02:27:51;1.77;;;1.25;;
62102;SDS011;48077;48.104;11.702;2022-08-21T02:30:25;2.17;;;1.10;;
62102;SDS011;48077;48.104;11.702;2022-08-21T02:32:51;2.55;;;1.30;;
62102;SDS011;48077;48.104;11.702;2022-08-21T02:35:15;1.70;;;1.17;;
62102;SDS011;48077;48.104;11.702;2022-08-21T02:37:46;1.67;;;1.20;;
62102;SDS011;48077;48.104;11.702;2022-08-21T02:40:11;2.83;;;1.40;;
62102;SDS011;48077;48.104;11.702;2022-08-21T02:42:35;2.00;;;1.27;;
62102;SDS011;48077;48.104;11.702;2022-08-21T02:44:59;2.47;;;1.45;;
62102;SDS011;48077;48.104;11.702;2022-08-21T02:47:22;2.85;;;1.50;;
62102;SDS011;48077;48.104;11.702;2022-08-21T02:49:45;2.28;;;1.50;;
62102;SDS011;48077;48.104;11.702;2022-08-21T02:52:09;2.70;;;1.63;;
62102;SDS011;48077;48.104;11.702;2022-08-21T02:54:32;2.45;;;1.52;;
62102;SDS011;48077;48.104;11.702;2022-08-21T02:56:56;2.85;;;1.40;;
62102;SDS011;48077;48.104;11.702;2022-08-21T02:59:20;2.38;;;1.38;;
62102;SDS011;48077;48.104;11.702;2022-08-21T03:01:43;1.52;;;1.08;;
62102;SDS011;48077;48.104;11.702;2022-08-21T03:04:07;3.10;;;1.40;;
62102;SDS011;48077;48.104;11.702;2022-08-21T03:06:30;1.98;;;1.30;;
62102;SDS011;48077;48.104;11.702;2022-08-21T03:08:53;2.97;;;1.60;;
62102;SDS011;48077;48.104;11.702;2022-08-21T03:11:17;1.52;;;1.13;;
62102;SDS011;48077;48.104;11.702;2022-08-21T03:13:42;2.65;;;1.13;;
62102;SDS011;48077;48.104;11.702;2022-08-21T03:16:06;2.83;;;1.50;;
62102;SDS011;48077;48.104;11.702;2022-08-21T03:18:29;2.53;;;1.50;;
62102;SDS011;48077;48.104;11.702;2022-08-21T03:20:53;2.28;;;1.30;;
62102;SDS011;48077;48.104;11.702;2022-08-21T03:23:17;2.35;;;1.38;;
62102;SDS011;48077;48.104;11.702;2022-08-21T03:25:41;2.05;;;1.30;;
62102;SDS011;48077;48.104;11.702;2022-08-21T03:28:05;3.75;;;1.52;;
62102;SDS011;48077;48.104;11.702;2022-08-21T03:30:30;2.42;;;1.48;;
62102;SDS011;48077;48.104;11.702;2022-08-21T03:32:54;2.78;;;1.63;;
62102;SDS011;48077;48.104;11.702;2022-08-21T03:35:18;2.17;;;1.38;;
62102;SDS011;48077;48.104;11.702;2022-08-21T03:37:42;2.35;;;1.55;;
62102;SDS011;48077;48.104;11.702;2022-08-21T03:40:07;1.95;;;1.25;;
62102;SDS011;48077;48.104;11.702;2022-08-21T03:42:31;3.05;;;1.40;;
62102;SDS011;48077;48.104;11.702;2022-08-21T03:44:55;2.63;;;1.42;;
62102;SDS011;48077;48.104;11.702;2022-08-21T03:47:18;2.08;;;1.33;;
62102;SDS011;48077;48.104;11.702;2022-08-21T03:49:41;2.00;;;1.20;;
62102;SDS011;48077;48.104;11.702;2022-08-21T03:52:05;2.10;;;1.40;;
62102;SDS011;48077;48.104;11.702;2022-08-21T03:54:28;3.10;;;1.60;;
62102;SDS011;48077;48.104;11.702;2022-08-21T03:56:52;2.65;;;1.50;;
62102;SDS011;48077;48.104;11.702;2022-08-21T03:59:16;2.78;;;1.50;;
62102;SDS011;48077;48.104;11.702;2022-08-21T04:01:39;3.47;;;1.70;;
62102;SDS011;48077;48.104;11.702;2022-08-21T04:04:03;2.35;;;1.40;;
62102;SDS011;48077;48.104;11.702;2022-08-21T04:06:26;2.33;;;1.30;;
62102;SDS011;48077;48.104;11.702;2022-08-21T04:08:50;3.83;;;1.70;;
62102;SDS011;48077;48.104;11.702;2022-08-21T04:11:13;1.40;;;1.10;;
62102;SDS011;48077;48.104;11.702;2022-08-21T04:13:38;2.75;;;1.50;;
62102;SDS011;48077;48.104;11.702;2022-08-21T04:16:01;2.33;;;1.38;;
62102;SDS011;48077;48.104;11.702;2022-08-21T04:18:25;2.05;;;1.30;;
62102;SDS011;48077;48.104;11.702;2022-08-21T04:20:49;2.97;;;1.55;;
62102;SDS011;48077;48.104;11.702;2022-08-21T04:23:14;2.55;;;1.38;;
62102;SDS011;48077;48.104;11.702;2022-08-21T04:25:38;2.42;;;1.48;;
62102;SDS011;48077;48.104;11.702;2022-08-21T04:28:02;2.50;;;1.50;;
62102;SDS011;48077;48.104;11.702;2022-08-21T04:30:25;3.80;;;1.60;;
62102;SDS011;48077;48.104;11.702;2022-08-21T04:32:49;3.50;;;1.60;;
62102;SDS011;48077;48.104;11.702;2022-08-21T04:35:14;2.45;;;1.20;;
62102;SDS011;48077;48.104;11.702;2022-08-21T04:37:39;2.88;;;1.50;;
62102;SDS011;48077;48.104;11.702;2022-08-21T04:40:03;1.95;;;1.20;;
62102;SDS011;48077;48.104;11.702;2022-08-21T04:42:28;2.25;;;1.20;;
62102;SDS011;48077;48.104;11.702;2022-08-21T04:44:51;1.80;;;1.20;;
62102;SDS011;48077;48.104;11.702;2022-08-21T04:47:15;1.52;;;1.10;;
62102;SDS011;48077;48.104;11.702;2022-08-21T04:49:39;2.20;;;1.30;;
62102;SDS011;48077;48.104;11.702;2022-08-21T04:52:03;3.92;;;1.30;;
62102;SDS011;48077;48.104;11.702;2022-08-21T04:54:28;2.22;;;1.17;;
62102;SDS011;48077;48.104;11.702;2022-08-21T04:56:52;3.10;;;1.52;;
62102;SDS011;48077;48.104;11.702;2022-08-21T04:59:20;2.65;;;1.40;;
62102;SDS011;48077;48.104;11.702;2022-08-21T05:01:47;2.63;;;1.33;;
62102;SDS011;48077;48.104;11.702;2022-08-21T05:04:12;3.17;;;1.67;;
62102;SDS011;48077;48.104;11.702;2022-08-21T05:06:40;2.30;;;1.50;;
62102;SDS011;48077;48.104;11.702;2022-08-21T05:09:06;3.00;;;1.60;;
62102;SDS011;48077;48.104;11.702;2022-08-21T05:11:32;2.42;;;1.40;;
62102;SDS011;48077;48.104;11.702;2022-08-21T05:13:55;3.85;;;1.80;;
62102;SDS011;48077;48.104;11.702;2022-08-21T05:16:19;3.10;;;1.60;;
62102;SDS011;48077;48.104;11.702;2022-08-21T05:18:43;3.33;;;1.65;;
62102;SDS011;48077;48.104;11.702;2022-08-21T05:21:06;2.08;;;1.17;;
62102;SDS011;48077;48.104;11.702;2022-08-21T05:23:29;2.95;;;1.40;;
62102;SDS011;48077;48.104;11.702;2022-08-21T05:25:53;2.65;;;1.40;;
62102;SDS011;48077;48.104;11.702;2022-08-21T05:28:18;2.15;;;1.15;;
62102;SDS011;48077;48.104;11.702;2022-08-21T05:30:41;3.00;;;1.63;;
62102;SDS011;48077;48.104;11.702;2022-08-21T05:33:05;1.60;;;1.35;;
62102;SDS011;48077;48.104;11.702;2022-08-21T05:35:29;3.80;;;1.48;;
62102;SDS011;48077;48.104;11.702;2022-08-21T05:37:53;3.03;;;1.60;;
62102;SDS011;48077;48.104;11.702;2022-08-21T05:40:17;3.92;;;1.88;;
62102;SDS011;48077;48.104;11.702;2022-08-21T05:42:41;2.70;;;1.30;;
62102;SDS011;48077;48.104;11.702;2022-08-21T05:45:04;4.18;;;1.60;;
62102;SDS011;48077;48.104;11.702;2022-08-21T05:47:28;3.63;;;1.52;;
62102;SDS011;48077;48.104;11.702;2022-08-21T05:49:51;2.95;;;1.40;;
62102;SDS011;48077;48.104;11.702;2022-08-21T05:52:18;3.28;;;1.52;;
62102;SDS011;48077;48.104;11.702;2022-08-21T05:54:43;4.30;;;1.52;;
62102;SDS011;48077;48.104;11.702;2022-08-21T05:57:06;2.70;;;1.33;;
62102;SDS011;48077;48.104;11.702;2022-08-21T05:59:31;2.03;;;1.10;;
62102;SDS011;48077;48.104;11.702;2022-08-21T06:01:54;2.85;;;1.40;;
62102;SDS011;48077;48.104;11.702;2022-08-21T06:04:18;2.65;;;1.48;;
62102;SDS011;48077;48.104;11.702;2022-08-21T06:06:41;2.80;;;1.35;;
62102;SDS011;48077;48.104;11.702;2022-08-21T06:09:04;2.58;;;1.65;;
62102;SDS011;48077;48.104;11.702;2022-08-21T06:11:29;1.30;;;1.15;;
62102;SDS011;48077;48.104;11.702;2022-08-21T06:13:53;1.77;;;1.25;;
62102;SDS011;48077;48.104;11.702;2022-08-21T06:16:16;2.40;;;1.50;;
62102;SDS011;48077;48.104;11.702;2022-08-21T06:18:40;1.58;;;1.27;;
62102;SDS011;48077;48.104;11.702;2022-08-21T06:21:04;2.83;;;1.48;;
62102;SDS011;48077;48.104;11.702;2022-08-21T06:23:28;2.10;;;1.40;;
62102;SDS011;48077;48.104;11.702;2022-08-21T06:25:51;2.28;;;1.50;;
62102;SDS011;48077;48.104;11.702;2022-08-21T06:28:15;1.85;;;1.40;;
62102;SDS011;48077;48.104;11.702;2022-08-21T06:30:38;1.67;;;1.33;;
62102;SDS011;48077;48.104;11.702;2022-08-21T06:33:02;2.38;;;1.70;;
62102;SDS011;48077;48.104;11.702;2022-08-21T06:35:26;2.10;;;1.38;;
62102;SDS011;48077;48.104;11.702;2022-08-21T06:37:51;2.83;;;1.40;;
62102;SDS011;48077;48.104;11.702;2022-08-21T06:40:15;2.90;;;1.30;;
62102;SDS011;48077;48.104;11.702;2022-08-21T06:42:38;2.40;;;1.50;;
62102;SDS011;48077;48.104;11.702;2022-08-21T06:45:02;2.60;;;1.40;;
62102;SDS011;48077;48.104;11.702;2022-08-21T06:47:26;2.17;;;1.45;;
62102;SDS011;48077;48.104;11.702;2022-08-21T06:49:49;3.33;;;2.03;;
62102;SDS011;48077;48.104;11.702;2022-08-21T06:52:13;3.72;;;2.10;;
62102;SDS011;48077;48.104;11.702;2022-08-21T06:54:37;1.92;;;1.50;;
62102;SDS011;48077;48.104;11.702;2022-08-21T06:57:00;4.40;;;1.70;;
62102;SDS011;48077;48.104;11.702;2022-08-21T06:59:24;4.20;;;2.15;;
62102;SDS011;48077;48.104;11.702;2022-08-21T07:01:47;3.53;;;1.55;;
62102;SDS011;48077;48.104;11.702;2022-08-21T07:04:11;2.45;;;1.50;;
62102;SDS011;48077;48.104;11.702;2022-08-21T07:06:34;2.65;;;1.63;;
62102;SDS011;48077;48.104;11.702;2022-08-21T07:08:58;3.67;;;1.85;;
62102;SDS011;48077;48.104;11.702;2022-08-21T07:11:22;1.60;;;1.48;;
62102;SDS011;48077;48.104;11.702;2022-08-21T07:13:46;3.78;;;2.00;;
62102;SDS011;48077;48.104;11.702;2022-08-21T07:16:11;2.53;;;1.67;;
62102;SDS011;48077;48.104;11.702;2022-08-21T07:18:34;4.00;;;2.00;;
62102;SDS011;48077;48.104;11.702;2022-08-21T07:20:58;3.35;;;2.00;;
62102;SDS011;48077;48.104;11.702;2022-08-21T07:23:26;2.63;;;1.70;;
62102;SDS011;48077;48.104;11.702;2022-08-21T07:25:55;3.00;;;1.88;;
62102;SDS011;48077;48.104;11.702;2022-08-21T07:28:19;3.10;;;1.95;;
62102;SDS011;48077;48.104;11.702;2022-08-21T07:30:42;2.45;;;1.85;;
62102;SDS011;48077;48.104;11.702;2022-08-21T07:33:06;3.60;;;2.40;;
62102;SDS011;48077;48.104;11.702;2022-08-21T07:35:30;2.45;;;1.67;;
62102;SDS011;48077;48.104;11.702;2022-08-21T07:37:56;2.85;;;2.05;;
62102;SDS011;48077;48.104;11.702;2022-08-21T07:40:19;3.88;;;1.98;;
62102;SDS011;48077;48.104;11.702;2022-08-21T07:42:43;3.35;;;2.38;;
62102;SDS011;48077;48.104;11.702;2022-08-21T07:45:10;3.83;;;2.35;;
62102;SDS011;48077;48.104;11.702;2022-08-21T07:47:34;5.40;;;2.83;;
62102;SDS011;48077;48.104;11.702;2022-08-21T07:49:57;3.80;;;2.47;;
62102;SDS011;48077;48.104;11.702;2022-08-21T07:52:20;4.15;;;2.30;;
62102;SDS011;48077;48.104;11.702;2022-08-21T07:54:44;3.65;;;2.47;;
62102;SDS011;48077;48.104;11.702;2022-08-21T07:57:07;3.03;;;1.95;;
62102;SDS011;48077;48.104;11.702;2022-08-21T07:59:30;4.35;;;2.22;;
62102;SDS011;48077;48.104;11.702;2022-08-21T08:01:53;4.65;;;2.78;;
62102;SDS011;48077;48.104;11.702;2022-08-21T08:04:17;4.82;;;3.05;;
62102;SDS011;48077;48.104;11.702;2022-08-21T08:06:41;3.45;;;2.72;;
62102;SDS011;48077;48.104;11.702;2022-08-21T08:09:04;5.68;;;3.00;;
62102;SDS011;48077;48.104;11.702;2022-08-21T08:11:28;3.65;;;2.65;;
62102;SDS011;48077;48.104;11.702;2022-08-21T08:13:51;6.43;;;3.30;;
62102;SDS011;48077;48.104;11.702;2022-08-21T08:16:15;4.63;;;3.03;;
62102;SDS011;48077;48.104;11.702;2022-08-21T08:18:39;6.15;;;3.88;;
62102;SDS011;48077;48.104;11.702;2022-08-21T08:21:02;4.78;;;3.03;;
62102;SDS011;48077;48.104;11.702;2022-08-21T08:23:27;5.18;;;3.20;;
62102;SDS011;48077;48.104;11.702;2022-08-21T08:25:51;4.97;;;3.17;;
62102;SDS011;48077;48.104;11.702;2022-08-21T08:28:14;4.55;;;2.97;;
62102;SDS011;48077;48.104;11.702;2022-08-21T08:30:38;4.32;;;2.95;;
62102;SDS011;48077;48.104;11.702;2022-08-21T08:33:01;4.60;;;3.42;;
62102;SDS011;48077;48.104;11.702;2022-08-21T08:35:25;7.03;;;3.55;;
62102;SDS011;48077;48.104;11.702;2022-08-21T08:37:48;4.90;;;3.30;;
62102;SDS011;48077;48.104;11.702;2022-08-21T08:40:14;5.05;;;3.25;;
62102;SDS011;48077;48.104;11.702;2022-08-21T08:43:02;9.65;;;3.85;;
62102;SDS011;48077;48.104;11.702;2022-08-21T08:45:28;4.88;;;3.05;;
62102;SDS011;48077;48.104;11.702;2022-08-21T08:47:56;6.47;;;4.10;;
62102;SDS011;48077;48.104;11.702;2022-08-21T08:53:04;4.37;;;2.90;;
62102;SDS011;48077;48.104;11.702;2022-08-21T08:55:37;4.70;;;3.75;;
62102;SDS011;48077;48.104;11.702;2022-08-21T08:58:03;4.63;;;3.35;;
62102;SDS011;48077;48.104;11.702;2022-08-21T09:00:26;3.67;;;2.97;;
62102;SDS011;48077;48.104;11.702;2022-08-21T09:02:54;5.28;;;3.45;;
62102;SDS011;48077;48.104;11.702;2022-08-21T09:05:21;3.30;;;2.85;;
62102;SDS011;48077;48.104;11.702;2022-08-21T09:10:39;3.55;;;2.80;;
62102;SDS011;48077;48.104;11.702;2022-08-21T09:21:35;4.65;;;3.58;;
62102;SDS011;48077;48.104;11.702;2022-08-21T09:27:04;6.13;;;3.90;;
62102;SDS011;48077;48.104;11.702;2022-08-21T09:29:35;5.28;;;3.30;;
62102;SDS011;48077;48.104;11.702;2022-08-21T09:32:02;4.00;;;2.90;;
62102;SDS011;48077;48.104;11.702;2022-08-21T09:34:32;4.28;;;3.55;;
62102;SDS011;48077;48.104;11.702;2022-08-21T09:36:55;5.25;;;3.35;;
62102;SDS011;48077;48.104;11.702;2022-08-21T09:39:24;5.22;;;3.10;;
62102;SDS011;48077;48.104;11.702;2022-08-21T09:42:01;5.32;;;3.00;;
62102;SDS011;48077;48.104;11.702;2022-08-21T09:44:28;3.67;;;2.60;;
62102;SDS011;48077;48.104;11.702;2022-08-21T09:46:55;3.60;;;2.97;;
62102;SDS011;48077;48.104;11.702;2022-08-21T09:49:35;4.50;;;3.08;;
62102;SDS011;48077;48.104;11.702;2022-08-21T09:52:01;4.82;;;2.92;;
62102;SDS011;48077;48.104;11.702;2022-08-21T09:54:31;3.40;;;2.80;;
62102;SDS011;48077;48.104;11.702;2022-08-21T09:56:58;4.78;;;3.45;;
62102;SDS011;48077;48.104;11.702;2022-08-21T09:59:46;4.28;;;3.20;;
62102;SDS011;48077;48.104;11.702;2022-08-21T10:04:53;4.15;;;2.90;;
62102;SDS011;48077;48.104;11.702;2022-08-21T10:07:21;3.42;;;2.67;;
62102;SDS011;48077;48.104;11.702;2022-08-21T10:09:57;5.38;;;3.10;;
62102;SDS011;48077;48.104;11.702;2022-08-21T10:12:29;4.30;;;2.72;;
62102;SDS011;48077;48.104;11.702;2022-08-21T10:21:02;6.20;;;3.40;;
62102;SDS011;48077;48.104;11.702;2022-08-21T10:28:45;4.25;;;2.90;;
62102;SDS011;48077;48.104;11.702;2022-08-21T10:31:34;4.15;;;2.70;;
62102;SDS011;48077;48.104;11.702;2022-08-21T10:34:22;4.85;;;3.22;;
62102;SDS011;48077;48.104;11.702;2022-08-21T10:39:36;3.30;;;2.65;;
62102;SDS011;48077;48.104;11.702;2022-08-21T10:47:35;4.72;;;2.78;;
62102;SDS011;48077;48.104;11.702;2022-08-21T10:55:39;3.70;;;2.75;;
62102;SDS011;48077;48.104;11.702;2022-08-21T10:58:04;3.45;;;2.63;;
62102;SDS011;48077;48.104;11.702;2022-08-21T11:00:47;2.83;;;2.42;;
62102;SDS011;48077;48.104;11.702;2022-08-21T11:03:18;3.55;;;2.60;;
62102;SDS011;48077;48.104;11.702;2022-08-21T11:05:51;3.65;;;2.55;;
62102;SDS011;48077;48.104;11.702;2022-08-21T11:08:26;2.88;;;2.38;;
62102;SDS011;48077;48.104;11.702;2022-08-21T11:10:55;4.90;;;3.15;;
62102;SDS011;48077;48.104;11.702;2022-08-21T11:13:26;4.35;;;2.60;;
62102;SDS011;48077;48.104;11.702;2022-08-21T11:15:58;3.33;;;2.67;;
62102;SDS011;48077;48.104;11.702;2022-08-21T11:18:28;4.97;;;3.10;;
62102;SDS011;48077;48.104;11.702;2022-08-21T11:20:59;5.47;;;3.10;;
62102;SDS011;48077;48.104;11.702;2022-08-21T11:23:37;3.72;;;2.72;;
62102;SDS011;48077;48.104;11.702;2022-08-21T11:26:11;5.13;;;2.90;;
62102;SDS011;48077;48.104;11.702;2022-08-21T11:28:42;3.88;;;2.92;;
62102;SDS011;48077;48.104;11.702;2022-08-21T11:37:27;3.33;;;2.40;;
62102;SDS011;48077;48.104;11.702;2022-08-21T11:45:39;3.08;;;2.50;;
62102;SDS011;48077;48.104;11.702;2022-08-21T11:51:19;4.45;;;2.97;;
62102;SDS011;48077;48.104;11.702;2022-08-21T11:56:57;3.00;;;2.70;;
62102;SDS011;48077;48.104;11.702;2022-08-21T11:59:20;3.28;;;2.53;;
62102;SDS011;48077;48.104;11.702;2022-08-21T12:01:48;3.85;;;2.92;;
62102;SDS011;48077;48.104;11.702;2022-08-21T12:07:12;3.92;;;3.00;;
62102;SDS011;48077;48.104;11.702;2022-08-21T12:09:39;4.32;;;2.58;;
62102;SDS011;48077;48.104;11.702;2022-08-21T12:14:43;3.83;;;2.75;;
62102;SDS011;48077;48.104;11.702;2022-08-21T12:17:16;4.10;;;2.83;;
62102;SDS011;48077;48.104;11.702;2022-08-21T12:19:44;3.10;;;2.25;;
62102;SDS011;48077;48.104;11.702;2022-08-21T12:22:09;4.10;;;2.97;;
62102;SDS011;48077;48.104;11.702;2022-08-21T12:24:37;3.45;;;2.53;;
62102;SDS011;48077;48.104;11.702;2022-08-21T12:27:27;4.20;;;2.83;;
62102;SDS011;48077;48.104;11.702;2022-08-21T12:29:59;6.97;;;4.47;;
62102;SDS011;48077;48.104;11.702;2022-08-21T12:32:31;3.95;;;2.60;;
62102;SDS011;48077;48.104;11.702;2022-08-21T12:36:06;3.60;;;3.00;;
62102;SDS011;48077;48.104;11.702;2022-08-21T12:40:52;4.93;;;3.00;;
62102;SDS011;48077;48.104;11.702;2022-08-21T12:43:21;4.55;;;3.47;;
62102;SDS011;48077;48.104;11.702;2022-08-21T12:45:54;3.78;;;2.95;;
62102;SDS011;48077;48.104;11.702;2022-08-21T12:50:50;5.28;;;3.38;;
62102;SDS011;48077;48.104;11.702;2022-08-21T12:53:20;3.75;;;3.08;;
62102;SDS011;48077;48.104;11.702;2022-08-21T12:55:55;5.70;;;3.30;;
62102;SDS011;48077;48.104;11.702;2022-08-21T12:58:24;3.78;;;3.08;;
62102;SDS011;48077;48.104;11.702;2022-08-21T13:00:52;4.03;;;2.90;;
62102;SDS011;48077;48.104;11.702;2022-08-21T13:03:19;3.08;;;2.78;;
62102;SDS011;48077;48.104;11.702;2022-08-21T13:05:45;5.18;;;3.40;;
62102;SDS011;48077;48.104;11.702;2022-08-21T13:08:09;4.03;;;2.83;;
62102;SDS011;48077;48.104;11.702;2022-08-21T13:10:35;4.80;;;2.90;;
62102;SDS011;48077;48.104;11.702;2022-08-21T13:13:01;3.03;;;2.60;;
62102;SDS011;48077;48.104;11.702;2022-08-21T13:15:32;3.47;;;3.00;;
62102;SDS011;48077;48.104;11.702;2022-08-21T13:17:57;3.53;;;2.88;;
62102;SDS011;48077;48.104;11.702;2022-08-21T13:20:28;4.32;;;3.10;;
62102;SDS011;48077;48.104;11.702;2022-08-21T13:22:57;4.45;;;3.50;;
62102;SDS011;48077;48.104;11.702;2022-08-21T13:25:24;4.22;;;3.25;;
62102;SDS011;48077;48.104;11.702;2022-08-21T13:27:57;5.30;;;3.47;;
62102;SDS011;48077;48.104;11.702;2022-08-21T13:30:23;4.97;;;3.10;;
62102;SDS011;48077;48.104;11.702;2022-08-21T13:32:48;3.92;;;3.28;;
62102;SDS011;48077;48.104;11.702;2022-08-21T13:35:18;5.05;;;3.50;;
62102;SDS011;48077;48.104;11.702;2022-08-21T13:37:45;4.22;;;3.35;;
62102;SDS011;48077;48.104;11.702;2022-08-21T13:40:11;7.10;;;3.53;;
62102;SDS011;48077;48.104;11.702;2022-08-21T13:42:39;4.00;;;3.20;;
62102;SDS011;48077;48.104;11.702;2022-08-21T13:45:04;5.60;;;3.80;;
62102;SDS011;48077;48.104;11.702;2022-08-21T13:47:36;5.68;;;3.75;;
62102;SDS011;48077;48.104;11.702;2022-08-21T13:49:59;6.00;;;3.65;;
62102;SDS011;48077;48.104;11.702;2022-08-21T13:52:24;8.93;;;4.20;;
62102;SDS011;48077;48.104;11.702;2022-08-21T13:54:56;5.00;;;3.30;;
62102;SDS011;48077;48.104;11.702;2022-08-21T13:57:31;6.32;;;3.88;;
62102;SDS011;48077;48.104;11.702;2022-08-21T14:02:53;6.32;;;4.32;;
62102;SDS011;48077;48.104;11.702;2022-08-21T14:05:25;7.10;;;3.67;;
62102;SDS011;48077;48.104;11.702;2022-08-21T14:07:52;5.07;;;3.53;;
62102;SDS011;48077;48.104;11.702;2022-08-21T14:10:29;5.65;;;3.78;;
62102;SDS011;48077;48.104;11.702;2022-08-21T14:13:01;5.25;;;3.50;;
62102;SDS011;48077;48.104;11.702;2022-08-21T14:15:28;5.10;;;3.10;;
62102;SDS011;48077;48.104;11.702;2022-08-21T14:17:54;11.37;;;9.40;;
62102;SDS011;48077;48.104;11.702;2022-08-21T14:20:30;4.97;;;3.60;;
62102;SDS011;48077;48.104;11.702;2022-08-21T14:22:57;6.05;;;3.78;;
62102;SDS011;48077;48.104;11.702;2022-08-21T14:27:54;4.43;;;3.25;;
62102;SDS011;48077;48.104;11.702;2022-08-21T14:30:27;4.13;;;3.15;;
62102;SDS011;48077;48.104;11.702;2022-08-21T14:32:52;4.00;;;3.03;;
62102;SDS011;48077;48.104;11.702;2022-08-21T14:35:16;4.57;;;3.25;;
62102;SDS011;48077;48.104;11.702;2022-08-21T14:37:41;5.32;;;3.25;;
62102;SDS011;48077;48.104;11.702;2022-08-21T14:40:05;4.80;;;3.67;;
62102;SDS011;48077;48.104;11.702;2022-08-21T14:42:29;4.18;;;3.58;;
62102;SDS011;48077;48.104;11.702;2022-08-21T14:44:52;6.28;;;3.63;;
62102;SDS011;48077;48.104;11.702;2022-08-21T14:47:23;4.55;;;3.38;;
62102;SDS011;48077;48.104;11.702;2022-08-21T14:49:47;5.95;;;3.95;;
62102;SDS011;48077;48.104;11.702;2022-08-21T14:52:10;3.95;;;3.00;;
62102;SDS011;48077;48.104;11.702;2022-08-21T14:54:34;4.65;;;3.35;;
62102;SDS011;48077;48.104;11.702;2022-08-21T14:57:02;5.15;;;3.95;;
62102;SDS011;48077;48.104;11.702;2022-08-21T14:59:29;4.18;;;3.00;;
62102;SDS011;48077;48.104;11.702;2022-08-21T15:01:52;6.00;;;3.60;;
62102;SDS011;48077;48.104;11.702;2022-08-21T15:04:16;7.53;;;3.67;;
62102;SDS011;48077;48.104;11.702;2022-08-21T15:06:39;5.55;;;3.80;;
62102;SDS011;48077;48.104;11.702;2022-08-21T15:09:03;5.88;;;3.38;;
62102;SDS011;48077;48.104;11.702;2022-08-21T15:11:28;5.53;;;3.60;;
62102;SDS011;48077;48.104;11.702;2022-08-21T15:13:53;5.30;;;3.50;;
62102;SDS011;48077;48.104;11.702;2022-08-21T15:16:19;5.18;;;3.45;;
62102;SDS011;48077;48.104;11.702;2022-08-21T15:18:42;5.72;;;3.53;;
62102;SDS011;48077;48.104;11.702;2022-08-21T15:21:06;4.45;;;3.22;;
62102;SDS011;48077;48.104;11.702;2022-08-21T15:23:30;5.40;;;3.13;;
62102;SDS011;48077;48.104;11.702;2022-08-21T15:25:53;7.03;;;3.70;;
62102;SDS011;48077;48.104;11.702;2022-08-21T15:28:17;5.65;;;3.70;;
62102;SDS011;48077;48.104;11.702;2022-08-21T15:30:43;5.95;;;3.63;;
62102;SDS011;48077;48.104;11.702;2022-08-21T15:33:07;5.00;;;3.50;;
62102;SDS011;48077;48.104;11.702;2022-08-21T15:35:31;5.45;;;3.30;;
62102;SDS011;48077;48.104;11.702;2022-08-21T15:37:55;4.45;;;2.80;;
62102;SDS011;48077;48.104;11.702;2022-08-21T15:40:18;5.63;;;3.30;;
62102;SDS011;48077;48.104;11.702;2022-08-21T15:42:42;7.68;;;3.83;;
62102;SDS011;48077;48.104;11.702;2022-08-21T15:45:06;7.78;;;4.00;;